ADDS METAR Data INFO
IDs: Format: Raw Decoded Include TAF

Data at: 0323 UTC 19 Jul 2018

KSDL 190253Z 24009KT 10SM CLR 36/18 A2992 RMK AO2 SLP101 T03610178 53001
KSDL 190153Z 23009KT 10SM CLR 37/18 A2990 RMK AO2 SLP096 T03670178
KSDL 190053Z 26009KT 10SM CLR 38/18 A2991 RMK AO2 SLP098 T03780178
KSDL 182353Z 24009KT 10SM CLR 38/18 A2991 RMK AO2 SLP099 T03830178 10383 20328 56019
KSDL 182253Z VRB06KT 10SM CLR 38/18 A2992 RMK AO2 SLP101 T03780183
KSDL 182153Z 28006KT 10SM CLR 37/18 A2995 RMK AO2 SLP111 T03720183
KSDL 182053Z VRB06KT 10SM CLR 37/18 A2997 RMK AO2 SLP119 T03670183 58027
KSDL 181953Z 10SM CLR 36/19 A3000 RMK AO2 SLP130 T03560189
KSDL 181853Z 21008KT 10SM CLR 34/19 A3004 RMK AO2 SLP140 T03390189
KSDL 181753Z VRB05KT 10SM CLR 33/19 A3005 RMK AO2 SLP146 T03280189 10328 20289 58000
KSDL 181653Z 20006KT 10SM CLR 32/19 A3006 RMK AO2 SLP148 T03220189
KSDL 181553Z VRB04KT 10SM CLR 31/19 A3006 RMK AO2 SLP147 T03060194
KSDL 181453Z 22004KT 10SM CLR 29/20 A3005 RMK AO2 SLP148 T02890200 50010
KSDL 181353Z 28005KT 10SM CLR 29/21 A3006 RMK AO2 SLP147 T02890206
KSDL 181253Z AUTO 25003KT 10SM CLR 29/19 A3005 RMK AO2 SLP144 T02890189
KSDL 181153Z AUTO 00000KT 10SM CLR 29/18 A3002 RMK AO2 SLP137 T02890183 10361 20289 53007
KSDL 181053Z AUTO 09003KT 10SM CLR 29/19 A3001 RMK AO2 SLP133 T02890189
KSDL 180953Z AUTO 15005KT 10SM CLR 29/20 A3001 RMK AO2 SLP132 T02890200
KSDL 180903Z AUTO 18004KT 8SM SCT020 30/20 A3000 RMK AO2 T03000200
KSDL 180853Z AUTO 16005KT 6SM HZ BKN019 29/21 A3000 RMK AO2 SLP130 T02940211 51031
KSDL 180805Z AUTO 14009KT 4SM HZ BKN023 31/21 A2998 RMK AO2 T03060211
KSDL 180753Z AUTO 6SM HZ FEW021 31/20 A2998 RMK AO2 SLP121 T03110200
KSDL 180653Z AUTO 23013G18KT 10SM CLR 34/18 A2994 RMK AO2 SLP107 T03440178 404000294
KSDL 180553Z AUTO 29003KT 10SM CLR 36/17 A2990 RMK AO2 SLP095 T03610167 10400 20361 50012
KSDL 180453Z AUTO 27003KT 10SM CLR 37/15 A2991 RMK AO2 LTG DSNT NW SLP096 T03720150
KSDL 180353Z AUTO 23004KT 10SM CLR 38/14 A2988 RMK AO2 SLP088 T03780144
KSDL 180253Z 27006KT 10SM CLR 38/14 A2987 RMK AO2 SLP083 T03780139 53006
KSDL 180153Z 25005KT 10SM CLR 39/13 A2984 RMK AO2 SLP074 T03940128
KSDL 180053Z VRB04KT 10SM CLR 39/13 A2984 RMK AO2 SLP075 T03940128
KSDL 172353Z 00000KT 10SM CLR 39/13 A2985 RMK AO2 SLP076 T03890133 10400 20350 58029
KSDL 172253Z 23006KT 10SM CLR 39/14 A2988 RMK AO2 SLP087 T03890144
KSDL 172153Z 22004KT 10SM CLR 38/14 A2991 RMK AO2 SLP100 T03780144
KSDL 172053Z VRB04KT 10SM CLR 38/16 A2994 RMK AO2 SLP107 T03780156 58017
KSDL 171953Z VRB04KT 10SM CLR 37/16 A2995 RMK AO2 SLP112 T03720161
KSDL 171853Z 00000KT 10SM CLR 37/17 A2998 RMK AO2 SLP120 T03670172
KSDL 171753Z 04004KT 10SM CLR 35/18 A2999 RMK AO2 SLP126 T03500178 10350 20294 58005
KSDL 171653Z VRB04KT 10SM CLR 34/18 A3000 RMK AO2 SLP128 T03390183
KSDL 171553Z 00000KT 10SM CLR 33/18 A3001 RMK AO2 SLP131 T03280183